This is the latest recevied weather packets stored in our database for station/object K0APR. If no packets are shown the sender has not sent any weather packets the latest 1 day(s).
| Time | Temp. | Humidity | Pressure | Rain* | Wind** | Luminosity | Snow |
|---|---|---|---|---|---|---|---|
| 1778096795 | 8.33° C | 44% | 1016.5 hPa | 0 mm | - | 348 W/m² | - |
| 1778096491 | 8.89° C | 46% | 1016.5 hPa | 0 mm | - | 547 W/m² | - |
| 1778096189 | 8.33° C | 45% | 1016.5 hPa | 0 mm | - | 310 W/m² | - |
| 1778095886 | 8.33° C | 45% | 1016.8 hPa | 0 mm | - | 247 W/m² | - |
| 1778093763 | 8.33° C | 47% | 1016.8 hPa | 0 mm | - | 900 W/m² | - |
| 1778091944 | 7.22° C | 52% | 1017.2 hPa | 0 mm | - | 341 W/m² | - |
| 1778091641 | 7.22° C | 50% | 1017.2 hPa | 0 mm | - | 388 W/m² | - |
| 1778091339 | 7.22° C | 49% | 1017.2 hPa | 0 mm | - | 373 W/m² | - |
| 1778090732 | 6.67° C | 51% | 1017.5 hPa | 0 mm | - | 367 W/m² | - |
| 1778090429 | 7.22° C | 51% | 1017.5 hPa | 0 mm | - | 314 W/m² | - |
| 1778089216 | 6.67° C | 51% | 1017.5 hPa | 0 mm | - | 355 W/m² | - |
| 1778088914 | 6.67° C | 51% | 1017.5 hPa | 0 mm | - | 372 W/m² | - |
| 1778088004 | 6.67° C | 51% | 1017.9 hPa | 0 mm | - | 388 W/m² | - |
| 1778086188 | 6.11° C | 53% | 1017.9 hPa | 0 mm | - | 346 W/m² | - |
| 1778085885 | 5.56° C | 54% | 1017.9 hPa | 0 mm | - | 352 W/m² | - |
| 1778085583 | 5.56° C | 53% | 1017.9 hPa | 0 mm | - | 382 W/m² | - |
| 1778083158 | 5.56° C | 52% | 1017.9 hPa | 0 mm | - | 238 W/m² | - |
| 1778081434 | 5° C | 53% | 1017.9 hPa | 0 mm | - | 209 W/m² | - |
| 1778081131 | 5° C | 54% | 1017.5 hPa | 0 mm | - | 193 W/m² | - |
| 1778079920 | 5° C | 55% | 1017.9 hPa | 0 mm | - | 293 W/m² | - |
| 1778077196 | 4.44° C | 57% | 1017.5 hPa | 0 mm | - | 146 W/m² | - |
| 1778076894 | 4.44° C | 57% | 1017.9 hPa | 0 mm | - | 131 W/m² | - |
| 1778076592 | 3.89° C | 59% | 1017.9 hPa | 0 mm | - | 106 W/m² | - |
| 1778075985 | 3.89° C | 60% | 1017.9 hPa | 0 mm | - | 83 W/m² | - |
| 1778075683 | 3.89° C | 59% | 1017.5 hPa | 0 mm | - | 67 W/m² | - |
* Rain latest hour (hover to see other rain measurements)
** Current wind speed in m/s (hover to see current wind gust speed)